Time;durP1;ratioP1;P1;durP2;ratioP2;P2;SDS_P1;SDS_P2;PMS_P1;PMS_P2;Temp;Humidity;BMP_temperature;BMP_pressure;BME280_temperature;BME280_humidity;BME280_pressure;Samples;Min_cycle;Max_cycle;Signal;HPM_P1;HPM_P2
2023/01/27 00:09:07;;;;;;;33.28;15.98;;;;;;;-0.63;100.00;100752.97;20979081;28;20110;-72
2023/01/27 00:19:09;;;;;;;32.78;15.90;;;;;;;-0.69;100.00;100745.06;20988734;28;20086;-73
2023/01/27 00:29:10;;;;;;;34.13;16.30;;;;;;;-0.61;100.00;100753.94;20988261;28;20059;-72
2023/01/27 00:39:11;;;;;;;32.20;15.65;;;;;;;-0.62;100.00;100751.31;20987865;28;20463;-72
2023/01/27 00:49:12;;;;;;;31.83;14.40;;;;;;;-0.69;100.00;100745.06;20985663;28;20044;-72
2023/01/27 00:59:14;;;;;;;35.97;14.57;;;;;;;-0.75;100.00;100733.69;20982387;28;20280;-73
2023/01/27 01:09:15;;;;;;;34.83;15.23;;;;;;;-0.58;100.00;100730.00;20984056;28;20492;-74
2023/01/27 01:19:16;;;;;;;39.45;16.42;;;;;;;-0.52;100.00;100727.66;20983696;28;20056;-72
2023/01/27 01:29:17;;;;;;;32.63;15.05;;;;;;;-0.50;100.00;100728.56;20983498;28;20056;-72
2023/01/27 01:39:19;;;;;;;39.13;16.65;;;;;;;-0.46;100.00;100727.84;20982399;28;20120;-72
2023/01/27 01:49:20;;;;;;;41.42;17.00;;;;;;;-0.55;100.00;100730.13;20981914;28;20484;-72
2023/01/27 01:59:21;;;;;;;41.80;18.88;;;;;;;-0.47;100.00;100715.81;20977126;28;20052;-73
2023/01/27 02:09:23;;;;;;;38.15;17.52;;;;;;;-0.63;100.00;100718.69;20979540;28;20107;-72
2023/01/27 02:19:24;;;;;;;37.88;16.42;;;;;;;-0.59;100.00;100720.53;20981506;28;20056;-72
2023/01/27 02:29:27;;;;;;;33.08;15.93;;;;;;;-0.57;100.00;100713.78;20978196;28;20102;-74
2023/01/27 02:39:28;;;;;;;36.50;15.90;;;;;;;-0.51;100.00;100708.81;20978274;28;20062;-73
2023/01/27 02:49:30;;;;;;;36.70;16.58;;;;;;;-0.40;100.00;100706.59;20976159;28;20858;-73
2023/01/27 02:59:31;;;;;;;44.80;17.30;;;;;;;-0.49;100.00;100707.16;20974713;28;20049;-72
2023/01/27 03:09:32;;;;;;;41.40;17.35;;;;;;;-0.45;100.00;100714.16;20974036;28;20044;-72
2023/01/27 03:19:33;;;;;;;31.55;14.43;;;;;;;-0.44;100.00;100715.91;20973452;28;20063;-73
2023/01/27 03:50:18;;;;;;;40.63;17.55;;;;;;;-0.34;100.00;100722.22;20971080;28;20068;-73
2023/01/27 04:00:20;;;;;;;45.00;18.05;;;;;;;-0.43;100.00;100733.13;20970720;28;20048;-74
2023/01/27 04:10:21;;;;;;;46.22;16.92;;;;;;;-0.46;100.00;100738.16;20971654;28;20052;-74
2023/01/27 04:20:22;;;;;;;50.63;19.17;;;;;;;-0.48;100.00;100744.91;20971149;28;20049;-73
2023/01/27 04:30:24;;;;;;;60.08;22.20;;;;;;;-0.37;100.00;100743.59;20970388;28;20455;-74
2023/01/27 04:40:25;;;;;;;61.35;23.02;;;;;;;-0.45;100.00;100750.19;20972217;28;20500;-72
2023/01/27 04:50:26;;;;;;;57.15;22.63;;;;;;;-0.31;100.00;100746.38;20970278;28;20048;-72
2023/01/27 05:00:27;;;;;;;69.43;23.98;;;;;;;-0.27;100.00;100750.81;20980559;28;20056;-72
2023/01/27 05:10:29;;;;;;;66.50;23.80;;;;;;;-0.26;100.00;100755.13;20984417;28;20048;-72
2023/01/27 05:20:30;;;;;;;65.70;22.90;;;;;;;-0.36;100.00;100757.34;20983358;28;20471;-72
2023/01/27 05:30:32;;;;;;;66.15;25.45;;;;;;;-0.38;100.00;100762.44;20982203;28;20430;-72
2023/01/27 05:40:33;;;;;;;77.85;27.15;;;;;;;-0.20;100.00;100763.88;20981812;28;20955;-72
2023/01/27 05:50:34;;;;;;;79.22;27.92;;;;;;;-0.28;100.00;100759.34;20980886;28;20635;-73
2023/01/27 06:00:35;;;;;;;69.75;24.08;;;;;;;-0.34;100.00;100769.41;20979768;28;20053;-73
2023/01/27 06:10:37;;;;;;;74.53;25.42;;;;;;;-0.28;100.00;100774.78;20978859;28;20569;-72
2023/01/27 06:20:38;;;;;;;79.30;26.63;;;;;;;-0.24;100.00;100780.03;20978157;28;20117;-73
2023/01/27 06:30:39;;;;;;;63.95;25.85;;;;;;;-0.20;100.00;100782.75;20977476;28;20041;-74
2023/01/27 06:40:41;;;;;;;69.43;25.10;;;;;;;-0.14;100.00;100782.97;20978176;28;20140;-73
2023/01/27 06:50:43;;;;;;;64.22;23.63;;;;;;;-0.15;100.00;100800.91;20976297;28;20464;-73
2023/01/27 07:00:44;;;;;;;66.22;23.20;;;;;;;-0.13;100.00;100800.16;20974194;28;20040;-70
2023/01/27 07:10:45;;;;;;;67.80;25.25;;;;;;;-0.13;100.00;100812.16;20973244;28;20398;-70
2023/01/27 07:20:47;;;;;;;64.38;24.45;;;;;;;-0.19;100.00;100823.13;20973582;28;20103;-70
2023/01/27 07:30:48;;;;;;;60.80;22.30;;;;;;;-0.16;100.00;100840.34;20971270;28;20040;-73
2023/01/27 07:40:49;;;;;;;55.85;20.13;;;;;;;-0.07;100.00;100853.53;20973261;28;20044;-75
2023/01/27 07:50:50;;;;;;;63.85;24.27;;;;;;;-0.12;100.00;100867.94;20972442;28;20071;-74
2023/01/27 08:00:51;;;;;;;56.55;21.17;;;;;;;-0.13;100.00;100881.66;20970981;28;20049;-74
2023/01/27 08:10:53;;;;;;;61.65;21.73;;;;;;;-0.06;100.00;100881.03;20968825;28;20117;-73
2023/01/27 08:20:54;;;;;;;49.97;18.77;;;;;;;0.20;100.00;100880.22;20967787;28;20052;-73
2023/01/27 08:30:55;;;;;;;32.97;14.93;;;;;;;0.16;100.00;100883.53;20974570;28;20051;-73
2023/01/27 08:40:57;;;;;;;32.40;14.15;;;;;;;0.13;100.00;100892.84;20973099;28;20048;-72
2023/01/27 08:50:58;;;;;;;33.58;14.52;;;;;;;0.17;100.00;100887.84;20976824;28;20052;-72
2023/01/27 09:01:01;;;;;;;32.67;14.35;;;;;;;0.28;100.00;100889.91;20983942;28;20044;-73
2023/01/27 09:11:02;;;;;;;35.78;15.07;;;;;;;0.34;100.00;100901.31;20983483;28;20068;-74
2023/01/27 09:21:03;;;;;;;32.67;13.60;;;;;;;0.58;100.00;100896.09;20984397;28;20056;-74
2023/01/27 09:31:07;;;;;;;30.15;13.40;;;;;;;0.44;100.00;100902.50;20981599;28;20049;-74
2023/01/27 09:41:08;;;;;;;30.83;12.83;;;;;;;0.55;100.00;100921.75;20980990;28;20051;-72
2023/01/27 09:51:10;;;;;;;26.23;11.50;;;;;;;0.52;100.00;100929.34;20980792;28;20044;-71
2023/01/27 10:01:12;;;;;;;27.42;11.40;;;;;;;0.74;100.00;100926.66;20979753;28;20389;-71
2023/01/27 10:11:14;;;;;;;24.45;10.40;;;;;;;0.75;100.00;100924.97;20977264;28;20052;-72
2023/01/27 10:21:15;;;;;;;22.33;10.10;;;;;;;0.93;100.00;100916.94;20978523;28;20053;-70
2023/01/27 10:31:16;;;;;;;23.73;11.02;;;;;;;1.23;100.00;100920.47;20982562;22;20499;-75
2023/01/27 10:41:18;;;;;;;19.30;10.40;;;;;;;1.22;100.00;100918.72;20933160;28;20067;-73
2023/01/27 10:51:19;;;;;;;21.02;9.50;;;;;;;1.15;100.00;100905.56;20975662;28;20060;-71
2023/01/27 11:01:20;;;;;;;19.77;9.98;;;;;;;1.52;100.00;100899.81;20974930;28;20196;-71
2023/01/27 11:21:43;;;;;;;22.48;9.68;;;;;;;1.73;100.00;100876.31;20973378;28;20150;-76
2023/01/27 11:31:44;;;;;;;23.13;10.63;;;;;;;1.78;100.00;100873.03;20975477;28;20052;-72
2023/01/27 11:41:45;;;;;;;17.25;8.95;;;;;;;1.64;100.00;100876.94;20971224;28;20429;-71
2023/01/27 11:51:48;;;;;;;17.05;8.35;;;;;;;1.72;100.00;100867.69;20969859;28;20091;-72
2023/01/27 12:01:50;;;;;;;14.13;7.83;;;;;;;1.53;100.00;100865.41;20956246;28;20056;-73
2023/01/27 12:11:52;;;;;;;19.33;9.50;;;;;;;1.70;100.00;100863.31;20969934;28;20052;-68
2023/01/27 12:21:53;;;;;;;20.67;9.80;;;;;;;1.87;100.00;100849.19;20970024;28;20057;-69
2023/01/27 12:31:54;;;;;;;16.90;7.65;;;;;;;1.79;100.00;100861.88;20968105;28;20110;-69
2023/01/27 12:41:55;;;;;;;14.68;7.28;;;;;;;1.70;100.00;100863.31;20969806;28;20084;-69
2023/01/27 12:51:57;;;;;;;14.25;6.72;;;;;;;1.87;100.00;100858.59;20969065;28;20641;-69
2023/01/27 13:01:58;;;;;;;13.02;6.63;;;;;;;1.96;100.00;100848.53;20967854;28;20559;-69
2023/01/27 13:11:59;;;;;;;12.18;4.90;;;;;;;1.92;100.00;100857.03;20967062;28;20458;-69
2023/01/27 13:22:01;;;;;;;10.15;4.55;;;;;;;1.99;100.00;100858.94;20982815;28;20646;-69
2023/01/27 13:32:02;;;;;;;8.80;4.55;;;;;;;1.97;100.00;100860.63;20991936;28;20051;-70
2023/01/27 13:42:03;;;;;;;10.73;4.90;;;;;;;1.86;100.00;100864.59;21064083;28;20055;-69
2023/01/27 13:52:05;;;;;;;8.80;4.43;;;;;;;1.97;100.00;100866.66;21063023;28;20078;-69
2023/01/27 14:02:06;;;;;;;8.93;4.38;;;;;;;2.04;100.00;100858.22;21060771;28;20476;-69
2023/01/27 14:12:08;;;;;;;8.90;4.65;;;;;;;1.95;100.00;100867.44;21058688;28;20048;-69
2023/01/27 14:22:09;;;;;;;10.07;4.53;;;;;;;2.03;100.00;100865.94;21061066;28;20052;-69
2023/01/27 14:32:10;;;;;;;9.40;5.07;;;;;;;2.14;100.00;100869.66;21058357;28;20060;-69
2023/01/27 14:42:12;;;;;;;10.75;5.20;;;;;;;2.20;100.00;100881.88;21059299;28;20052;-69
2023/01/27 14:52:14;;;;;;;11.00;4.65;;;;;;;2.16;100.00;100882.66;21058062;28;20048;-70
2023/01/27 15:02:15;;;;;;;8.65;4.45;;;;;;;2.07;100.00;100888.44;21055815;28;20113;-69
2023/01/27 15:12:16;;;;;;;10.57;5.40;;;;;;;2.04;100.00;100898.69;21056169;28;20716;-68
2023/01/27 15:22:17;;;;;;;9.93;4.45;;;;;;;1.93;100.00;100900.97;21055218;28;20102;-68
2023/01/27 15:32:19;;;;;;;9.95;5.60;;;;;;;1.71;100.00;100898.63;21053090;28;20040;-69
2023/01/27 15:42:25;;;;;;;17.00;7.93;;;;;;;1.57;100.00;100916.28;21052558;28;20048;-69
2023/01/27 15:52:26;;;;;;;20.02;9.68;;;;;;;1.46;100.00;100918.56;21053365;28;20389;-69
2023/01/27 16:02:27;;;;;;;19.10;10.48;;;;;;;1.71;100.00;100925.31;21051591;28;20075;-69
2023/01/27 16:12:28;;;;;;;22.30;11.70;;;;;;;1.66;100.00;100932.06;21053353;28;20058;-69
2023/01/27 16:22:30;;;;;;;19.75;10.60;;;;;;;1.71;100.00;100942.50;21053067;28;20539;-69
2023/01/27 16:32:31;;;;;;;21.08;10.25;;;;;;;1.69;100.00;100947.63;21052046;28;20048;-66
2023/01/27 16:42:32;;;;;;;33.05;13.63;;;;;;;1.76;100.00;100949.53;21051899;28;20067;-67
2023/01/27 16:52:33;;;;;;;19.02;10.07;;;;;;;1.74;100.00;100951.22;21062092;28;20056;-68
2023/01/27 17:02:42;;;;;;;18.27;9.02;;;;;;;1.77;100.00;100953.91;21061856;28;20135;-68
2023/01/27 17:12:45;;;;;;;20.75;10.80;;;;;;;1.84;100.00;100966.97;21061672;28;20142;-67
2023/01/27 17:22:52;;;;;;;19.80;10.85;;;;;;;1.76;100.00;100971.91;21062532;28;20121;-65
2023/01/27 17:32:54;;;;;;;13.77;7.85;;;;;;;1.70;100.00;100967.44;21061584;28;20476;-68
2023/01/27 17:42:55;;;;;;;13.55;6.22;;;;;;;1.68;100.00;100976.88;21054807;28;20508;-68
2023/01/27 17:52:56;;;;;;;15.27;7.38;;;;;;;1.75;100.00;100978.78;21058353;28;20079;-69
2023/01/27 18:02:58;;;;;;;16.63;8.02;;;;;;;1.83;100.00;100985.88;21057604;28;20067;-68
2023/01/27 18:12:59;;;;;;;16.50;9.23;;;;;;;1.86;100.00;100983.38;21057712;28;20051;-68
2023/01/27 18:23:00;;;;;;;18.65;9.30;;;;;;;1.83;100.00;100979.03;21057950;28;20058;-68
2023/01/27 18:33:02;;;;;;;19.50;9.98;;;;;;;1.82;100.00;100984.13;21056414;28;20295;-68
2023/01/27 18:43:03;;;;;;;21.33;10.95;;;;;;;1.80;100.00;100992.69;21053295;28;20465;-68
2023/01/27 18:53:04;;;;;;;20.20;10.25;;;;;;;1.80;100.00;101003.03;21055943;28;20093;-68
2023/01/27 19:03:06;;;;;;;19.90;10.63;;;;;;;1.72;100.00;101007.06;21054770;28;20396;-68
2023/01/27 19:13:07;;;;;;;24.23;13.10;;;;;;;1.70;100.00;101015.63;21051532;28;20538;-68
2023/01/27 19:23:08;;;;;;;31.52;13.57;;;;;;;1.67;100.00;101021.56;21046038;28;20052;-68
2023/01/27 19:33:10;;;;;;;28.98;14.60;;;;;;;1.73;100.00;101031.22;21047736;28;20079;-67
2023/01/27 19:43:11;;;;;;;30.25;13.85;;;;;;;1.72;100.00;101027.72;21047585;28;20101;-67
2023/01/27 19:53:12;;;;;;;24.48;11.73;;;;;;;1.69;100.00;101029.38;21035092;28;20052;-68
2023/01/27 20:03:13;;;;;;;24.92;11.48;;;;;;;1.61;100.00;101031.69;21045119;28;20052;-67
2023/01/27 20:13:15;;;;;;;27.48;13.88;;;;;;;1.63;100.00;101039.47;21044089;28;20416;-67
2023/01/27 20:23:16;;;;;;;24.92;14.07;;;;;;;1.59;100.00;101042.81;21048475;28;20094;-68
2023/01/27 20:33:17;;;;;;;19.80;8.02;;;;;;;1.62;100.00;101038.59;21061465;28;20459;-68
2023/01/27 20:43:18;;;;;;;17.33;7.72;;;;;;;1.63;100.00;101044.66;21063196;28;20060;-68
2023/01/27 20:53:35;;;;;;;17.77;8.70;;;;;;;1.64;100.00;101047.28;21054539;28;20091;-68
2023/01/27 21:03:37;;;;;;;26.33;12.38;;;;;;;1.63;100.00;101060.13;21049812;28;20052;-67
2023/01/27 21:13:39;;;;;;;26.67;14.27;;;;;;;1.63;100.00;101063.63;21060572;28;20087;-67
2023/01/27 21:23:40;;;;;;;27.83;14.98;;;;;;;1.64;100.00;101067.06;21064753;28;20055;-68
2023/01/27 21:33:41;;;;;;;24.48;13.35;;;;;;;1.65;100.00;101064.53;21062092;28;20482;-66
2023/01/27 21:54:02;;;;;;;25.70;12.90;;;;;;;1.72;100.00;101066.44;21057902;28;20400;-67
2023/01/27 22:04:04;;;;;;;30.73;13.98;;;;;;;1.74;100.00;101075.13;21059415;28;20048;-66
2023/01/27 22:14:05;;;;;;;15.20;8.38;;;;;;;1.77;100.00;101067.50;21056621;28;20447;-67
2023/01/27 22:24:06;;;;;;;22.05;10.13;;;;;;;1.75;100.00;101082.03;21058769;28;20428;-67
2023/01/27 22:34:07;;;;;;;17.25;8.73;;;;;;;1.75;100.00;101082.03;21056264;28;20093;-67
2023/01/27 22:44:11;;;;;;;12.70;6.97;;;;;;;1.72;100.00;101081.94;21057092;28;20052;-67
2023/01/27 22:54:12;;;;;;;16.57;7.80;;;;;;;1.80;100.00;101080.47;21055554;28;20489;-67
2023/01/27 23:04:14;;;;;;;14.30;7.40;;;;;;;1.89;100.00;101079.00;21058059;28;20052;-69
2023/01/27 23:14:15;;;;;;;16.05;7.00;;;;;;;1.97;100.00;101087.88;21057914;28;20056;-68
2023/01/27 23:24:16;;;;;;;12.10;6.07;;;;;;;2.07;100.00;101089.91;21057181;28;20060;-68
2023/01/27 23:34:18;;;;;;;11.65;5.90;;;;;;;1.98;100.00;101084.47;21055303;28;20040;-68
2023/01/27 23:44:19;;;;;;;11.30;5.47;;;;;;;1.99;100.00;101075.88;21055904;28;20519;-68
2023/01/27 23:54:20;;;;;;;14.45;6.50;;;;;;;2.08;100.00;101073.56;21054671;28;20424;-69
